createdAt,value
2019-06-26T00:00:42.753Z,23.93
2019-06-26T00:03:16.175Z,23.82
2019-06-26T00:05:49.666Z,23.82
2019-06-26T00:08:23.033Z,23.95
2019-06-26T00:10:56.517Z,23.91
2019-06-26T00:13:29.945Z,23.85
2019-06-26T00:16:03.439Z,23.79
2019-06-26T00:18:36.848Z,23.77
2019-06-26T00:21:10.275Z,23.78
2019-06-26T00:23:43.647Z,23.70
2019-06-26T00:26:17.086Z,23.65
2019-06-26T00:28:50.513Z,23.60
2019-06-26T00:31:23.937Z,23.61
2019-06-26T00:33:57.420Z,23.60
2019-06-26T00:36:30.836Z,23.63
2019-06-26T00:39:06.467Z,23.76
2019-06-26T00:41:39.904Z,23.76
2019-06-26T00:44:13.306Z,23.77
2019-06-26T00:46:46.734Z,23.66
2019-06-26T00:49:20.469Z,23.54
2019-06-26T00:51:53.890Z,23.49
2019-06-26T00:54:27.315Z,23.39
2019-06-26T00:57:00.819Z,23.34
2019-06-26T00:59:34.242Z,23.24
2019-06-26T01:02:07.765Z,23.17
2019-06-26T01:04:45.260Z,23.19
2019-06-26T01:07:18.676Z,23.19
2019-06-26T01:09:52.102Z,23.23
2019-06-26T01:12:25.502Z,23.22
2019-06-26T01:14:58.930Z,23.21
2019-06-26T01:17:32.358Z,23.14
2019-06-26T01:20:09.328Z,23.14
2019-06-26T01:22:42.767Z,22.98
2019-06-26T01:25:16.457Z,22.88
2019-06-26T01:27:49.884Z,22.78
2019-06-26T01:30:23.670Z,22.75
2019-06-26T01:32:57.144Z,22.73
2019-06-26T01:35:30.573Z,22.75
2019-06-26T01:38:04.067Z,22.77
2019-06-26T01:40:37.591Z,22.80
2019-06-26T01:43:11.005Z,22.75
2019-06-26T01:45:44.459Z,22.70
2019-06-26T01:48:17.896Z,22.61
2019-06-26T01:50:51.331Z,22.54
2019-06-26T01:53:24.731Z,22.54
2019-06-26T01:55:58.237Z,22.47
2019-06-26T01:58:31.658Z,22.49
2019-06-26T02:01:05.085Z,22.44
2019-06-26T02:03:38.480Z,22.51
2019-06-26T02:06:11.969Z,22.63
2019-06-26T02:08:45.413Z,22.63
2019-06-26T02:11:18.833Z,22.60
2019-06-26T02:13:52.259Z,22.51
2019-06-26T02:16:25.752Z,22.43
2019-06-26T02:19:00.817Z,22.43
2019-06-26T02:21:34.333Z,22.48
2019-06-26T02:24:07.723Z,22.50
2019-06-26T02:26:41.160Z,22.40
2019-06-26T02:29:14.636Z,22.21
2019-06-26T02:31:48.123Z,22.19
2019-06-26T02:34:21.589Z,22.00
2019-06-26T02:36:55.047Z,21.88
2019-06-26T02:39:28.545Z,21.91
2019-06-26T02:42:01.963Z,21.86
2019-06-26T02:44:52.102Z,21.90
2019-06-26T02:47:19.766Z,21.95
2019-06-26T02:49:45.788Z,21.89
2019-06-26T02:52:19.285Z,21.84
2019-06-26T02:54:52.705Z,21.84
2019-06-26T02:57:26.927Z,21.83
2019-06-26T03:00:00.428Z,21.79
2019-06-26T03:02:33.845Z,21.86
2019-06-26T03:05:07.677Z,21.84
2019-06-26T03:07:41.079Z,21.84
2019-06-26T03:10:14.646Z,21.82
2019-06-26T03:12:48.680Z,21.76
2019-06-26T03:15:22.109Z,21.82
2019-06-26T03:17:55.987Z,21.85
2019-06-26T03:20:32.457Z,21.80
2019-06-26T03:23:06.069Z,21.71
2019-06-26T03:25:39.556Z,21.82
2019-06-26T03:28:12.983Z,21.99
2019-06-26T03:30:46.494Z,22.00
2019-06-26T03:33:24.215Z,21.99
2019-06-26T03:35:57.655Z,22.02
2019-06-26T03:38:31.098Z,22.00
2019-06-26T03:41:04.485Z,21.99
2019-06-26T03:43:37.936Z,21.97
2019-06-26T03:46:11.331Z,22.01
2019-06-26T03:48:44.758Z,22.06
2019-06-26T03:51:18.297Z,22.10
2019-06-26T03:53:51.774Z,22.08
2019-06-26T03:56:25.207Z,22.11
2019-06-26T03:58:58.627Z,22.18
2019-06-26T04:01:32.065Z,22.27
2019-06-26T04:04:05.501Z,22.31
2019-06-26T04:06:38.911Z,22.37
2019-06-26T04:09:12.316Z,22.36
2019-06-26T04:11:45.731Z,22.27
2019-06-26T04:14:19.281Z,22.43
2019-06-26T04:16:52.656Z,22.36
2019-06-26T04:19:26.122Z,22.51
2019-06-26T04:21:59.641Z,22.58
2019-06-26T04:24:33.138Z,22.58
2019-06-26T04:27:06.578Z,22.54
2019-06-26T04:29:40.008Z,22.64
2019-06-26T04:32:13.537Z,22.70
2019-06-26T04:34:46.953Z,22.67
2019-06-26T04:37:20.383Z,22.70
2019-06-26T04:39:53.783Z,22.87
2019-06-26T04:42:27.217Z,23.00
2019-06-26T04:45:00.638Z,23.15
2019-06-26T04:47:34.034Z,23.32
2019-06-26T04:50:07.983Z,23.25
2019-06-26T04:52:41.428Z,23.60
2019-06-26T04:55:15.452Z,24.42
2019-06-26T04:57:48.884Z,24.28
2019-06-26T05:00:23.211Z,24.31
2019-06-26T05:02:56.642Z,25.44
2019-06-26T05:05:39.661Z,26.17
2019-06-26T05:08:05.260Z,26.55
2019-06-26T05:10:38.661Z,27.12
2019-06-26T05:13:12.086Z,27.21
2019-06-26T05:15:45.499Z,27.31
2019-06-26T05:18:18.978Z,27.62
2019-06-26T05:20:52.446Z,27.86
2019-06-26T05:23:25.907Z,27.97
2019-06-26T05:25:59.309Z,28.13
2019-06-26T05:28:32.724Z,28.68
2019-06-26T05:31:06.121Z,28.07
2019-06-26T05:33:39.567Z,27.18
2019-06-26T05:36:13.025Z,27.63
2019-06-26T05:38:46.452Z,28.03
2019-06-26T05:41:19.845Z,27.32
2019-06-26T05:43:53.277Z,28.45
2019-06-26T05:46:31.098Z,27.71
2019-06-26T05:49:01.839Z,27.93
2019-06-26T05:51:35.241Z,28.48
2019-06-26T05:54:08.655Z,29.14
2019-06-26T05:56:45.145Z,28.41
2019-06-26T05:59:17.201Z,28.05
2019-06-26T06:01:50.605Z,28.07
2019-06-26T06:04:24.041Z,27.84
2019-06-26T06:06:57.465Z,29.13
2019-06-26T06:09:31.041Z,29.77
2019-06-26T06:12:04.513Z,30.11
2019-06-26T06:14:37.961Z,30.05
2019-06-26T06:17:11.402Z,28.94
2019-06-26T06:19:44.841Z,29.50
2019-06-26T06:22:18.264Z,29.98
2019-06-26T06:24:51.702Z,29.50
2019-06-26T06:27:25.136Z,28.99
2019-06-26T06:29:58.573Z,29.27
2019-06-26T06:32:32.061Z,29.62
2019-06-26T06:35:08.249Z,29.58
2019-06-26T06:37:41.686Z,29.42
2019-06-26T06:40:15.229Z,30.02
2019-06-26T06:42:48.635Z,30.14
2019-06-26T06:45:23.886Z,30.07
2019-06-26T06:47:57.368Z,30.33
2019-06-26T06:50:30.832Z,30.15
2019-06-26T06:53:04.305Z,30.57
2019-06-26T06:55:37.742Z,30.53
2019-06-26T06:58:11.169Z,29.79
2019-06-26T07:00:44.606Z,30.81
2019-06-26T07:03:18.133Z,30.12
2019-06-26T07:05:51.542Z,30.77
2019-06-26T07:08:25.025Z,30.21
2019-06-26T07:10:58.443Z,31.11
2019-06-26T07:13:31.873Z,31.10
2019-06-26T07:16:05.349Z,32.09
2019-06-26T07:18:38.739Z,30.77
2019-06-26T07:21:12.167Z,29.76
2019-06-26T07:23:45.624Z,30.89
2019-06-26T07:26:19.367Z,31.84
2019-06-26T07:28:52.797Z,31.40
2019-06-26T07:31:26.263Z,31.19
2019-06-26T07:34:15.564Z,31.31
2019-06-26T07:36:48.993Z,31.46
2019-06-26T07:39:22.382Z,32.39
2019-06-26T07:41:55.806Z,31.77
2019-06-26T07:44:29.218Z,32.49
2019-06-26T07:47:02.748Z,32.62
2019-06-26T07:49:36.247Z,31.76
2019-06-26T07:52:09.769Z,32.80
2019-06-26T07:54:43.182Z,32.03
2019-06-26T07:57:16.660Z,33.08
2019-06-26T07:59:50.117Z,32.10
2019-06-26T08:02:23.606Z,32.96
2019-06-26T08:04:57.116Z,31.66
2019-06-26T08:07:30.594Z,32.39
2019-06-26T08:10:06.441Z,32.05
2019-06-26T08:12:39.861Z,31.98
2019-06-26T08:15:14.539Z,33.47
2019-06-26T08:17:59.964Z,32.84
2019-06-26T08:20:23.186Z,32.62
2019-06-26T08:22:56.629Z,32.44
2019-06-26T08:25:30.034Z,32.36
2019-06-26T08:28:03.540Z,31.52
2019-06-26T08:30:37.075Z,31.84
2019-06-26T08:33:10.530Z,31.39
2019-06-26T08:35:43.923Z,32.38
2019-06-26T08:38:17.327Z,31.98
2019-06-26T08:40:50.825Z,31.92
2019-06-26T08:43:24.278Z,32.90
2019-06-26T08:45:57.676Z,31.97
2019-06-26T08:48:39.445Z,32.31
2019-06-26T08:51:06.243Z,32.45
2019-06-26T08:53:39.677Z,32.50
2019-06-26T08:56:13.109Z,33.23
2019-06-26T08:58:46.538Z,33.67
2019-06-26T09:01:19.938Z,32.82
2019-06-26T09:03:53.415Z,33.07
2019-06-26T09:06:26.797Z,33.17
2019-06-26T09:09:00.247Z,31.93
2019-06-26T09:11:33.654Z,31.89
2019-06-26T09:14:07.130Z,32.30
2019-06-26T09:16:40.618Z,32.09
2019-06-26T09:19:14.114Z,32.30
2019-06-26T09:21:47.541Z,31.44
2019-06-26T09:24:20.962Z,32.04
2019-06-26T09:26:54.451Z,32.47
2019-06-26T09:29:27.870Z,32.00
2019-06-26T09:32:01.315Z,32.67
2019-06-26T09:34:34.756Z,32.83
2019-06-26T09:37:08.225Z,31.58
2019-06-26T09:39:41.823Z,32.22
2019-06-26T09:42:19.374Z,32.34
2019-06-26T09:44:50.995Z,32.29
2019-06-26T09:47:24.483Z,32.18
2019-06-26T09:49:57.930Z,32.21
2019-06-26T09:52:31.361Z,32.65
2019-06-26T09:55:05.738Z,32.94
2019-06-26T09:57:39.141Z,33.06
2019-06-26T10:00:19.024Z,32.45
2019-06-26T10:02:52.486Z,33.02
2019-06-26T10:05:26.010Z,33.55
2019-06-26T10:07:59.411Z,33.55
2019-06-26T10:10:32.826Z,33.44
2019-06-26T10:13:06.323Z,33.29
2019-06-26T10:15:39.783Z,33.05
2019-06-26T10:18:13.183Z,33.67
2019-06-26T10:20:46.626Z,33.48
2019-06-26T10:23:20.019Z,34.18
2019-06-26T10:25:53.440Z,33.69
2019-06-26T10:28:26.899Z,33.69
2019-06-26T10:31:00.314Z,33.83
2019-06-26T10:33:33.698Z,33.68
2019-06-26T10:36:07.613Z,33.96
2019-06-26T10:38:41.021Z,34.33
2019-06-26T10:41:14.457Z,34.88
2019-06-26T10:43:47.888Z,34.88
2019-06-26T10:46:21.294Z,34.47
2019-06-26T10:48:54.766Z,34.08
2019-06-26T10:51:28.187Z,33.86
2019-06-26T10:54:01.713Z,34.13
2019-06-26T10:56:35.231Z,33.64
2019-06-26T10:59:10.400Z,33.64
2019-06-26T11:01:43.856Z,33.93
2019-06-26T11:04:17.319Z,34.20
2019-06-26T11:06:50.921Z,34.52
2019-06-26T11:09:24.322Z,34.52
2019-06-26T11:11:57.765Z,33.94
2019-06-26T11:14:31.193Z,34.59
2019-06-26T11:17:04.685Z,35.05
2019-06-26T11:19:43.998Z,34.24
2019-06-26T11:22:13.248Z,34.76
2019-06-26T11:24:46.686Z,34.82
2019-06-26T11:27:20.200Z,34.73
2019-06-26T11:29:53.721Z,35.15
2019-06-26T11:32:27.166Z,35.34
2019-06-26T11:35:00.596Z,34.70
2019-06-26T11:37:34.149Z,35.07
2019-06-26T11:40:08.881Z,35.09
2019-06-26T11:42:42.342Z,35.34
2019-06-26T11:45:16.219Z,35.21
2019-06-26T11:47:49.648Z,35.10
2019-06-26T11:50:24.171Z,35.15
2019-06-26T11:52:57.732Z,35.56
2019-06-26T11:55:31.153Z,35.92
2019-06-26T11:58:04.724Z,35.91
2019-06-26T12:00:41.476Z,36.21
2019-06-26T12:03:13.515Z,35.69
2019-06-26T12:05:46.924Z,35.20
2019-06-26T12:08:20.428Z,35.82
2019-06-26T12:10:53.831Z,35.90
2019-06-26T12:13:27.240Z,36.36
2019-06-26T12:16:00.676Z,35.43
2019-06-26T12:18:34.111Z,35.29
2019-06-26T12:21:07.499Z,35.38
2019-06-26T12:23:40.902Z,35.50
2019-06-26T12:26:14.322Z,36.03
2019-06-26T12:28:47.819Z,36.00
2019-06-26T12:31:21.228Z,35.67
2019-06-26T12:33:54.676Z,35.77
2019-06-26T12:36:28.087Z,35.56
2019-06-26T12:39:01.503Z,35.37
2019-06-26T12:41:34.976Z,35.29
2019-06-26T12:44:08.463Z,35.75
2019-06-26T12:46:41.866Z,35.32
2019-06-26T12:49:15.282Z,35.93
2019-06-26T12:51:48.677Z,35.69
2019-06-26T12:54:22.110Z,35.50
2019-06-26T12:56:55.506Z,35.36
2019-06-26T12:59:28.948Z,35.58
2019-06-26T13:02:02.413Z,35.80
2019-06-26T13:04:35.826Z,35.72
2019-06-26T13:07:09.269Z,35.70
2019-06-26T13:09:42.728Z,35.92
2019-06-26T13:12:16.166Z,35.47
2019-06-26T13:14:49.570Z,36.03
2019-06-26T13:17:23.004Z,36.22
2019-06-26T13:19:56.477Z,36.22
2019-06-26T13:22:29.909Z,36.01
2019-06-26T13:25:04.348Z,36.11
2019-06-26T13:27:37.768Z,36.09
2019-06-26T13:30:11.428Z,35.78
2019-06-26T13:32:44.845Z,35.58
2019-06-26T13:35:19.021Z,35.99
2019-06-26T13:37:52.417Z,36.13
2019-06-26T13:40:25.836Z,36.21
2019-06-26T13:42:59.546Z,35.92
2019-06-26T13:45:33.027Z,36.11
2019-06-26T13:48:06.592Z,35.87
2019-06-26T13:50:40.033Z,35.78
2019-06-26T13:53:13.462Z,35.88
2019-06-26T13:55:46.931Z,36.21
2019-06-26T13:58:20.321Z,35.90
2019-06-26T14:00:53.745Z,36.25
2019-06-26T14:03:27.226Z,36.44
2019-06-26T14:06:00.682Z,36.09
2019-06-26T14:08:34.132Z,36.00
2019-06-26T14:11:07.747Z,35.99
2019-06-26T14:13:42.055Z,36.26
2019-06-26T14:16:15.766Z,36.32
2019-06-26T14:18:49.186Z,36.08
2019-06-26T14:21:25.975Z,35.94
2019-06-26T14:23:57.916Z,36.01
2019-06-26T14:26:31.393Z,36.56
2019-06-26T14:29:20.035Z,36.26
2019-06-26T14:31:40.008Z,36.16
2019-06-26T14:34:14.982Z,36.00
2019-06-26T14:36:48.445Z,36.01
2019-06-26T14:39:21.825Z,36.30
2019-06-26T14:41:55.310Z,36.13
2019-06-26T14:44:28.714Z,35.99
2019-06-26T14:47:02.205Z,36.43
2019-06-26T14:49:35.634Z,36.20
2019-06-26T14:52:09.077Z,36.25
2019-06-26T14:54:42.494Z,36.30
2019-06-26T14:57:15.933Z,36.33
2019-06-26T14:59:49.336Z,36.03
2019-06-26T15:02:22.811Z,36.68
2019-06-26T15:04:56.174Z,36.15
2019-06-26T15:07:29.587Z,36.75
2019-06-26T15:10:03.858Z,36.44
2019-06-26T15:12:37.358Z,36.47
2019-06-26T15:15:10.990Z,36.65
2019-06-26T15:17:44.456Z,36.40
2019-06-26T15:20:18.174Z,36.05
2019-06-26T15:22:51.714Z,36.09
2019-06-26T15:25:25.138Z,36.23
2019-06-26T15:27:58.549Z,36.93
2019-06-26T15:30:32.106Z,37.56
2019-06-26T15:33:05.518Z,38.90
2019-06-26T15:35:38.930Z,37.80
2019-06-26T15:38:12.337Z,37.80
2019-06-26T15:40:45.745Z,37.76
2019-06-26T15:43:19.200Z,38.22
2019-06-26T15:45:52.616Z,38.32
2019-06-26T15:48:26.045Z,38.39
2019-06-26T15:50:59.460Z,39.22
2019-06-26T15:53:32.870Z,38.76
2019-06-26T15:56:06.281Z,37.87
2019-06-26T15:58:39.697Z,37.95
2019-06-26T16:01:13.085Z,37.67
2019-06-26T16:03:46.494Z,37.64
2019-06-26T16:06:19.911Z,38.60
2019-06-26T16:08:53.394Z,37.44
2019-06-26T16:11:26.790Z,37.56
2019-06-26T16:14:00.269Z,37.90
2019-06-26T16:16:35.346Z,37.70
2019-06-26T16:19:10.416Z,37.54
2019-06-26T16:21:43.808Z,38.25
2019-06-26T16:24:17.223Z,37.27
2019-06-26T16:26:50.641Z,37.98
2019-06-26T16:29:24.064Z,39.33
2019-06-26T16:31:57.484Z,37.63
2019-06-26T16:34:30.931Z,37.73
2019-06-26T16:37:04.391Z,37.15
2019-06-26T16:39:37.836Z,38.21
2019-06-26T16:42:11.329Z,39.24
2019-06-26T16:44:44.808Z,39.09
2019-06-26T16:47:18.197Z,39.87
2019-06-26T16:49:51.727Z,39.38
2019-06-26T16:52:25.138Z,39.18
2019-06-26T16:54:58.634Z,39.91
2019-06-26T16:57:32.080Z,38.87
2019-06-26T17:00:10.435Z,39.33
2019-06-26T17:02:44.030Z,38.14
2019-06-26T17:05:17.472Z,37.57
2019-06-26T17:07:50.917Z,37.61
2019-06-26T17:10:24.354Z,37.56
2019-06-26T17:12:57.777Z,37.34
2019-06-26T17:15:31.227Z,37.11
2019-06-26T17:18:04.800Z,37.37
2019-06-26T17:20:38.230Z,37.24
2019-06-26T17:23:11.678Z,37.35
2019-06-26T17:25:45.083Z,37.91
2019-06-26T17:28:18.531Z,38.20
2019-06-26T17:30:53.043Z,38.73
2019-06-26T17:33:26.501Z,37.26
2019-06-26T17:35:59.987Z,37.64
2019-06-26T17:38:33.564Z,37.89
2019-06-26T17:41:07.072Z,36.84
2019-06-26T17:43:40.511Z,36.46
2019-06-26T17:46:14.051Z,36.35
2019-06-26T17:48:47.486Z,36.15
2019-06-26T17:51:20.925Z,36.35
2019-06-26T17:53:54.402Z,36.60
2019-06-26T17:56:27.845Z,36.53
2019-06-26T17:59:01.280Z,36.29
2019-06-26T18:01:34.724Z,36.22
2019-06-26T18:04:08.221Z,36.03
2019-06-26T18:06:41.664Z,35.55
2019-06-26T18:09:15.099Z,35.41
2019-06-26T18:11:48.538Z,35.11
2019-06-26T18:14:21.956Z,34.83
2019-06-26T18:16:55.410Z,34.54
2019-06-26T18:19:28.821Z,34.41
2019-06-26T18:22:02.290Z,34.32
2019-06-26T18:24:35.725Z,34.30
2019-06-26T18:27:09.156Z,34.11
2019-06-26T18:29:42.604Z,33.97
2019-06-26T18:32:16.056Z,33.91
2019-06-26T18:34:49.477Z,33.77
2019-06-26T18:37:23.005Z,33.63
2019-06-26T18:39:56.430Z,33.48
2019-06-26T18:42:29.933Z,33.36
2019-06-26T18:45:04.482Z,33.27
2019-06-26T18:47:37.919Z,33.22
2019-06-26T18:50:11.505Z,33.17
2019-06-26T18:52:44.936Z,33.08
2019-06-26T18:55:18.504Z,32.98
2019-06-26T18:57:51.983Z,32.84
2019-06-26T19:00:25.637Z,32.67
2019-06-26T19:02:59.170Z,32.60
2019-06-26T19:05:32.574Z,32.50
2019-06-26T19:08:06.023Z,32.43
2019-06-26T19:10:39.475Z,32.35
2019-06-26T19:13:12.988Z,32.20
2019-06-26T19:15:46.425Z,32.05
2019-06-26T19:18:19.940Z,32.02
2019-06-26T19:20:53.446Z,31.97
2019-06-26T19:23:27.015Z,31.87
2019-06-26T19:26:00.468Z,31.80
2019-06-26T19:28:33.958Z,31.68
2019-06-26T19:31:07.468Z,31.65
2019-06-26T19:33:40.926Z,31.57
2019-06-26T19:36:15.407Z,31.51
2019-06-26T19:38:49.005Z,31.35
2019-06-26T19:41:22.491Z,31.23
2019-06-26T19:43:56.110Z,31.39
2019-06-26T19:46:29.645Z,31.23
2019-06-26T19:49:03.106Z,31.15
2019-06-26T19:51:36.655Z,30.95
2019-06-26T19:54:22.888Z,30.85
2019-06-26T19:56:45.253Z,31.13
2019-06-26T19:59:18.740Z,31.25
2019-06-26T20:01:52.338Z,31.44
2019-06-26T20:04:25.801Z,31.62
2019-06-26T20:06:59.252Z,31.58
2019-06-26T20:09:32.806Z,31.49
2019-06-26T20:12:06.388Z,31.47
2019-06-26T20:14:39.909Z,31.24
2019-06-26T20:17:13.403Z,31.13
2019-06-26T20:19:46.896Z,31.12
2019-06-26T20:22:20.426Z,30.99
2019-06-26T20:24:57.182Z,30.99
2019-06-26T20:27:29.118Z,30.89
2019-06-26T20:30:02.713Z,30.85
2019-06-26T20:32:36.164Z,30.80
2019-06-26T20:35:09.699Z,30.68
2019-06-26T20:37:43.154Z,30.59
2019-06-26T20:40:16.867Z,30.57
2019-06-26T20:42:50.300Z,30.49
2019-06-26T20:45:23.899Z,30.46
2019-06-26T20:47:57.333Z,30.34
2019-06-26T20:50:30.865Z,30.33
2019-06-26T20:53:04.363Z,30.27
2019-06-26T20:55:37.801Z,30.14
2019-06-26T20:58:11.310Z,30.09
2019-06-26T21:00:44.882Z,30.04
2019-06-26T21:03:21.148Z,29.95
2019-06-26T21:05:53.491Z,29.98
2019-06-26T21:08:29.446Z,29.96
2019-06-26T21:11:02.169Z,29.89
2019-06-26T21:13:35.613Z,29.63
2019-06-26T21:16:09.075Z,29.20
2019-06-26T21:18:42.508Z,28.81
2019-06-26T21:21:16.019Z,28.57
2019-06-26T21:23:49.438Z,28.43
2019-06-26T21:26:22.859Z,28.36
2019-06-26T21:28:56.286Z,28.31
2019-06-26T21:31:29.766Z,28.33
2019-06-26T21:34:03.265Z,28.33
2019-06-26T21:36:36.698Z,28.36
2019-06-26T21:39:10.176Z,28.43
2019-06-26T21:41:43.658Z,28.46
2019-06-26T21:44:17.103Z,28.44
2019-06-26T21:46:50.534Z,28.64
2019-06-26T21:49:23.950Z,28.62
2019-06-26T21:51:57.381Z,28.65
2019-06-26T21:54:30.797Z,28.79
2019-06-26T21:57:04.349Z,28.77
2019-06-26T21:59:37.795Z,28.72
2019-06-26T22:02:11.315Z,28.78
2019-06-26T22:04:44.721Z,28.76
2019-06-26T22:07:18.394Z,28.77
2019-06-26T22:09:51.898Z,28.72
2019-06-26T22:12:25.379Z,28.78
2019-06-26T22:14:58.850Z,28.73
2019-06-26T22:17:32.434Z,28.65
2019-06-26T22:20:12.517Z,28.61
2019-06-26T22:22:46.272Z,28.61
2019-06-26T22:25:19.739Z,28.60
2019-06-26T22:27:53.215Z,28.58
2019-06-26T22:30:27.285Z,28.51
2019-06-26T22:33:00.693Z,28.46
2019-06-26T22:35:34.166Z,28.44
2019-06-26T22:38:07.728Z,28.43
2019-06-26T22:40:41.096Z,28.47
2019-06-26T22:43:14.522Z,28.45
2019-06-26T22:45:47.977Z,28.51
2019-06-26T22:48:21.518Z,28.40
2019-06-26T22:50:54.939Z,28.33
2019-06-26T22:53:28.419Z,28.31
2019-06-26T22:56:07.757Z,28.34
2019-06-26T22:58:37.287Z,28.33
2019-06-26T23:01:10.794Z,28.37
2019-06-26T23:03:44.325Z,28.27
2019-06-26T23:06:17.908Z,28.25
2019-06-26T23:08:51.410Z,28.09
2019-06-26T23:11:24.800Z,28.04
2019-06-26T23:13:58.347Z,28.05
2019-06-26T23:16:31.852Z,28.03
2019-06-26T23:19:05.377Z,28.01
2019-06-26T23:21:38.818Z,27.95
2019-06-26T23:24:12.278Z,27.92
2019-06-26T23:26:45.697Z,27.93
2019-06-26T23:29:19.188Z,27.79
2019-06-26T23:31:52.643Z,27.73
2019-06-26T23:34:26.121Z,27.71
2019-06-26T23:36:59.551Z,27.64
2019-06-26T23:39:33.016Z,27.52
2019-06-26T23:42:06.587Z,27.27
2019-06-26T23:44:40.066Z,27.11
2019-06-26T23:47:13.544Z,27.14
2019-06-26T23:49:47.004Z,27.09
2019-06-26T23:52:20.431Z,27.06
2019-06-26T23:54:54.058Z,27.02
2019-06-26T23:57:27.493Z,26.96
